Time;durP1;ratioP1;P1;durP2;ratioP2;P2;SDS_P1;SDS_P2;PMS_P1;PMS_P2;Temp;Humidity;BMP_temperature;BMP_pressure;BME280_temperature;BME280_humidity;BME280_pressure;Samples;Min_cycle;Max_cycle;Signal;HPM_P1;HPM_P2
2023/12/30 00:01:47;;;;;;;4.38;1.40;;;;;;;3.17;100.00;99124.75;5006411;28;20058;-72
2023/12/30 00:04:13;;;;;;;5.32;1.92;;;;;;;3.16;100.00;99116.16;5005572;28;20137;-71
2023/12/30 00:06:40;;;;;;;4.07;1.35;;;;;;;3.19;100.00;99110.88;5007197;28;20050;-71
2023/12/30 00:09:07;;;;;;;7.72;1.50;;;;;;;3.30;100.00;99123.47;5006106;28;20403;-71
2023/12/30 00:11:33;;;;;;;4.38;1.40;;;;;;;3.52;100.00;99125.31;5010505;28;20050;-72
2023/12/30 00:14:00;;;;;;;3.95;1.60;;;;;;;3.31;100.00;99132.06;5006866;28;20056;-72
2023/12/30 00:16:28;;;;;;;7.88;1.55;;;;;;;3.35;100.00;99137.09;4997099;28;20049;-72
2023/12/30 00:18:55;;;;;;;6.63;1.65;;;;;;;3.55;100.00;99133.81;5013597;28;20128;-72
2023/12/30 00:21:22;;;;;;;7.18;1.45;;;;;;;3.32;100.00;99142.34;4998676;28;20112;-71
2023/12/30 00:23:50;;;;;;;7.25;1.50;;;;;;;3.44;100.00;99137.69;4995003;28;20058;-72
2023/12/30 00:26:25;;;;;;;6.45;1.50;;;;;;;3.64;100.00;99152.53;5009139;28;20606;-72
2023/12/30 00:28:52;;;;;;;6.50;1.50;;;;;;;3.31;100.00;99126.88;5008662;28;20038;-72
2023/12/30 00:31:27;;;;;;;10.73;2.20;;;;;;;3.53;100.00;99127.84;5009256;28;20066;-72
2023/12/30 00:33:59;;;;;;;6.75;1.70;;;;;;;3.72;100.00;99134.97;5000825;28;20049;-71
2023/12/30 00:36:27;;;;;;;6.75;1.60;;;;;;;3.57;100.00;99131.16;5022575;28;20171;-72
2023/12/30 00:38:54;;;;;;;4.68;1.80;;;;;;;3.76;100.00;99128.78;5015713;28;20281;-72
2023/12/30 00:41:22;;;;;;;5.18;1.52;;;;;;;3.59;100.00;99100.91;5016956;28;20094;-73
2023/12/30 00:43:48;;;;;;;4.40;1.58;;;;;;;3.55;100.00;99148.50;5000431;28;20048;-72
2023/12/30 00:46:16;;;;;;;5.15;1.85;;;;;;;3.64;100.00;99135.25;5011550;28;20484;-72
2023/12/30 00:48:43;;;;;;;6.07;1.80;;;;;;;3.59;100.00;99150.06;5000543;28;20128;-72
2023/12/30 00:51:20;;;;;;;6.15;1.65;;;;;;;3.30;100.00;99148.50;5002911;28;20062;-72
2023/12/30 00:53:47;;;;;;;5.60;1.50;;;;;;;3.63;100.00;99159.44;5016936;28;20133;-72
2023/12/30 00:56:14;;;;;;;4.55;1.63;;;;;;;3.75;100.00;99150.38;5000203;28;20050;-72
2023/12/30 00:58:40;;;;;;;6.93;1.40;;;;;;;3.57;100.00;99150.13;5009823;28;20053;-71
2023/12/30 01:01:07;;;;;;;5.93;1.85;;;;;;;3.57;100.00;99162.22;5017279;28;20049;-71
2023/12/30 01:03:34;;;;;;;5.35;1.80;;;;;;;3.52;100.00;99169.31;5021331;28;20491;-72
2023/12/30 01:06:01;;;;;;;5.88;1.60;;;;;;;3.47;100.00;99174.66;5006338;28;20058;-72
2023/12/30 01:08:27;;;;;;;6.47;1.60;;;;;;;3.57;100.00;99177.75;4999269;28;20557;-72
2023/12/30 01:10:54;;;;;;;8.70;1.75;;;;;;;3.42;100.00;99166.19;5023302;28;20144;-72
2023/12/30 01:13:21;;;;;;;9.15;1.90;;;;;;;3.57;100.00;99186.34;5022433;28;20049;-72
2023/12/30 01:15:47;;;;;;;6.85;1.55;;;;;;;3.59;100.00;99189.78;5017587;28;20281;-72
2023/12/30 01:18:14;;;;;;;4.85;1.67;;;;;;;3.50;100.00;99191.81;5014584;28;20125;-72
2023/12/30 01:20:41;;;;;;;8.15;1.63;;;;;;;3.69;100.00;99190.28;5013602;28;20104;-73
2023/12/30 01:23:08;;;;;;;4.93;1.55;;;;;;;3.46;100.00;99175.53;5018799;28;20053;-72
2023/12/30 01:25:37;;;;;;;5.38;1.65;;;;;;;3.59;100.00;99182.00;5026709;28;20522;-72
2023/12/30 01:28:05;;;;;;;6.72;2.10;;;;;;;3.59;100.00;99204.44;5001408;28;20092;-72
2023/12/30 01:30:32;;;;;;;5.00;1.40;;;;;;;3.55;100.00;99214.03;5005218;28;20053;-71
2023/12/30 01:32:59;;;;;;;7.88;1.60;;;;;;;3.70;100.00;99209.25;5020134;28;20054;-72
2023/12/30 01:35:25;;;;;;;6.40;1.33;;;;;;;3.86;100.00;99219.91;5005395;28;20157;-72
2023/12/30 01:37:52;;;;;;;6.40;1.90;;;;;;;3.72;100.00;99208.31;4986621;28;20116;-72
2023/12/30 01:40:19;;;;;;;6.50;1.63;;;;;;;3.89;100.00;99228.44;4982756;28;20425;-71
2023/12/30 01:42:46;;;;;;;6.70;1.65;;;;;;;3.75;100.00;99223.75;5022584;28;20586;-72
2023/12/30 01:45:13;;;;;;;12.50;1.67;;;;;;;3.82;100.00;99221.78;5024400;28;20065;-72
2023/12/30 01:47:40;;;;;;;6.47;1.65;;;;;;;3.72;100.00;99220.38;5013689;28;20108;-72
2023/12/30 01:50:09;;;;;;;6.72;1.42;;;;;;;3.75;100.00;99220.28;5018575;28;20049;-72
2023/12/30 01:52:36;;;;;;;14.65;1.80;;;;;;;3.79;100.00;99234.84;5017622;28;20174;-72
2023/12/30 01:55:04;;;;;;;4.72;1.48;;;;;;;3.62;100.00;99217.28;5027144;28;20083;-72
2023/12/30 01:57:31;;;;;;;6.10;1.52;;;;;;;3.48;100.00;99222.06;5014197;28;20060;-72
2023/12/30 02:00:01;;;;;;;4.15;1.30;;;;;;;3.64;100.00;99230.16;5009168;28;20053;-72
2023/12/30 02:02:28;;;;;;;9.40;1.60;;;;;;;3.59;100.00;99246.72;4985658;28;20046;-72
2023/12/30 02:04:55;;;;;;;8.00;1.67;;;;;;;3.59;100.00;99238.94;5022567;28;20414;-72
2023/12/30 02:07:22;;;;;;;4.93;1.70;;;;;;;3.66;100.00;99242.16;5024805;28;20141;-72
2023/12/30 02:09:49;;;;;;;4.45;1.40;;;;;;;3.69;100.00;99241.22;5008919;28;20403;-72
2023/12/30 02:12:16;;;;;;;5.88;1.80;;;;;;;3.58;100.00;99250.19;5012426;28;20054;-72
2023/12/30 02:14:42;;;;;;;10.38;1.90;;;;;;;3.65;100.00;99257.72;5030910;28;20049;-72
2023/12/30 02:17:09;;;;;;;8.23;1.85;;;;;;;3.55;100.00;99234.75;5009867;28;20100;-72
2023/12/30 02:19:36;;;;;;;3.88;1.30;;;;;;;3.74;100.00;99244.50;5025803;28;20054;-71
2023/12/30 02:22:03;;;;;;;12.85;1.80;;;;;;;3.45;100.00;99253.22;5010918;28;20053;-72
2023/12/30 02:24:29;;;;;;;7.95;1.80;;;;;;;3.52;100.00;99252.13;5006452;28;20046;-73
2023/12/30 02:26:56;;;;;;;5.53;1.70;;;;;;;3.54;100.00;99258.94;5002995;28;20053;-72
2023/12/30 02:29:23;;;;;;;3.42;1.40;;;;;;;3.53;100.00;99253.81;5017070;28;20046;-72
2023/12/30 02:31:49;;;;;;;24.38;4.03;;;;;;;3.44;100.00;99254.97;5002848;28;20321;-72
2023/12/30 02:34:17;;;;;;;8.48;1.80;;;;;;;3.61;100.00;99268.19;5007868;28;20156;-72
2023/12/30 02:36:46;;;;;;;7.45;1.95;;;;;;;3.51;100.00;99265.97;5001865;28;20095;-72
2023/12/30 02:39:14;;;;;;;6.03;1.65;;;;;;;3.69;100.00;99280.88;5030114;28;20471;-72
2023/12/30 02:41:41;;;;;;;10.45;1.58;;;;;;;3.60;100.00;99263.91;5014038;28;20057;-72
2023/12/30 02:44:08;;;;;;;7.00;1.60;;;;;;;3.71;100.00;99278.25;5013763;28;20095;-72
2023/12/30 02:46:35;;;;;;;6.65;2.00;;;;;;;3.76;100.00;99281.53;5030841;28;20475;-72
2023/12/30 02:49:03;;;;;;;4.90;1.50;;;;;;;3.80;100.00;99280.53;5016743;28;20045;-72
2023/12/30 02:51:30;;;;;;;6.43;1.83;;;;;;;3.63;100.00;99257.81;5022485;28;20049;-72
2023/12/30 02:53:58;;;;;;;7.20;2.13;;;;;;;3.74;100.00;99286.75;5021168;28;20049;-72
2023/12/30 02:56:26;;;;;;;7.03;1.60;;;;;;;3.77;100.00;99275.44;5005594;28;20050;-72
2023/12/30 02:58:56;;;;;;;7.13;1.60;;;;;;;3.90;100.00;99297.47;5006532;28;20042;-71
2023/12/30 03:01:25;;;;;;;8.50;1.65;;;;;;;3.88;100.00;99303.56;5009071;28;20089;-72
2023/12/30 03:03:54;;;;;;;8.30;1.67;;;;;;;3.94;100.00;99306.81;4996939;28;20492;-72
2023/12/30 03:06:22;;;;;;;6.90;1.52;;;;;;;3.85;100.00;99308.88;5010095;28;20099;-72
2023/12/30 03:08:49;;;;;;;12.77;1.83;;;;;;;3.84;100.00;99310.59;5020454;28;20561;-72
2023/12/30 03:11:16;;;;;;;5.55;1.80;;;;;;;4.06;100.00;99299.53;5014730;28;20437;-71
2023/12/30 03:13:43;;;;;;;10.38;3.00;;;;;;;3.94;100.00;99309.41;5005850;28;20045;-72
2023/12/30 03:16:11;;;;;;;9.50;1.70;;;;;;;3.99;100.00;99304.91;5029110;28;20057;-72
2023/12/30 03:18:38;;;;;;;5.63;1.63;;;;;;;3.94;100.00;99293.84;5016980;28;20152;-72
2023/12/30 03:21:09;;;;;;;8.80;1.70;;;;;;;3.94;100.00;99301.63;5018821;28;20052;-72
2023/12/30 03:23:37;;;;;;;8.00;1.92;;;;;;;3.90;100.00;99314.75;5014861;28;20482;-73
2023/12/30 03:26:05;;;;;;;7.25;1.60;;;;;;;3.83;100.00;99300.31;5019312;28;20389;-72
2023/12/30 03:28:32;;;;;;;6.80;1.70;;;;;;;4.02;100.00;99316.94;5014055;28;20399;-72
2023/12/30 03:30:59;;;;;;;8.90;3.22;;;;;;;3.80;100.00;99324.53;5004336;28;20153;-72
2023/12/30 03:33:26;;;;;;;9.02;1.70;;;;;;;3.97;100.00;99326.59;5016641;28;20521;-72
2023/12/30 03:35:54;;;;;;;6.78;1.58;;;;;;;3.93;100.00;99314.63;5010054;28;20415;-72
2023/12/30 03:38:21;;;;;;;7.35;2.50;;;;;;;3.95;100.00;99318.03;5015113;28;20054;-72
2023/12/30 03:40:47;;;;;;;7.47;1.70;;;;;;;3.92;100.00;99312.94;5004324;28;20050;-72
2023/12/30 03:43:14;;;;;;;11.48;1.92;;;;;;;4.10;100.00;99301.97;5014076;28;20407;-72
2023/12/30 03:45:41;;;;;;;6.63;1.60;;;;;;;3.98;100.00;99297.19;5011560;28;20049;-72
2023/12/30 03:48:08;;;;;;;8.63;2.88;;;;;;;3.89;100.00;99307.88;5012203;28;20046;-72
2023/12/30 03:50:36;;;;;;;5.38;1.50;;;;;;;3.77;100.00;99301.34;5001439;28;20168;-72
2023/12/30 03:53:04;;;;;;;7.72;1.88;;;;;;;3.94;100.00;99306.81;5008920;28;20127;-72
2023/12/30 03:55:31;;;;;;;5.63;1.60;;;;;;;4.07;100.00;99314.16;4997434;28;20133;-72
2023/12/30 03:57:58;;;;;;;5.10;1.80;;;;;;;3.93;100.00;99310.31;5028038;28;20041;-72
2023/12/30 04:00:25;;;;;;;6.07;1.70;;;;;;;3.87;100.00;99292.38;5011513;28;20202;-72
2023/12/30 04:02:52;;;;;;;6.68;1.70;;;;;;;3.95;100.00;99316.28;5022420;28;20046;-73
2023/12/30 04:05:19;;;;;;;6.43;1.50;;;;;;;3.92;100.00;99280.13;5018685;28;20049;-72
2023/12/30 04:07:46;;;;;;;4.90;1.63;;;;;;;4.01;100.00;99304.03;5011089;28;20053;-72
2023/12/30 04:10:14;;;;;;;5.93;1.60;;;;;;;3.91;100.00;99306.94;5010198;28;20108;-72
2023/12/30 04:12:41;;;;;;;5.82;1.63;;;;;;;3.98;100.00;99323.09;5012390;28;20050;-72
2023/12/30 04:15:09;;;;;;;7.93;2.00;;;;;;;3.79;100.00;99317.69;5017734;28;20049;-72
2023/12/30 04:17:37;;;;;;;5.40;1.90;;;;;;;3.86;100.00;99321.78;5015986;28;20049;-72
2023/12/30 04:20:08;;;;;;;9.00;1.70;;;;;;;3.92;100.00;99303.44;4999747;28;20048;-72
2023/12/30 04:22:34;;;;;;;8.38;1.83;;;;;;;3.74;100.00;99317.81;5008342;28;20053;-72
2023/12/30 04:25:02;;;;;;;6.40;1.60;;;;;;;3.91;100.00;99325.06;5012195;28;20077;-72
2023/12/30 04:27:29;;;;;;;4.60;1.55;;;;;;;3.91;100.00;99314.69;4995550;28;20056;-72
2023/12/30 04:29:56;;;;;;;4.68;1.40;;;;;;;3.96;100.00;99345.59;5010148;28;20041;-72
2023/12/30 04:32:24;;;;;;;9.43;2.65;;;;;;;3.83;100.00;99340.00;5007859;28;20050;-72
2023/12/30 04:34:51;;;;;;;10.88;1.90;;;;;;;3.60;100.00;99338.13;5025105;28;20140;-72
2023/12/30 04:37:19;;;;;;;6.13;1.80;;;;;;;4.02;100.00;99357.50;5023217;28;20050;-71
2023/12/30 04:39:46;;;;;;;10.88;1.80;;;;;;;3.77;100.00;99356.56;5013339;28;20049;-72
2023/12/30 04:42:14;;;;;;;5.45;1.67;;;;;;;3.95;100.00;99341.34;5026531;28;20056;-72
2023/12/30 04:44:41;;;;;;;12.43;2.20;;;;;;;4.01;100.00;99335.09;5023326;28;20406;-72
2023/12/30 04:47:08;;;;;;;9.73;1.73;;;;;;;3.77;100.00;99322.91;5029610;28;20057;-72
2023/12/30 04:49:35;;;;;;;6.85;1.55;;;;;;;4.06;100.00;99333.22;5013001;28;20472;-72
2023/12/30 04:52:02;;;;;;;7.85;1.75;;;;;;;4.12;100.00;99320.03;5008725;28;20053;-72
2023/12/30 04:54:30;;;;;;;9.45;2.22;;;;;;;3.96;100.00;99299.00;5018410;28;20139;-72
2023/12/30 04:56:57;;;;;;;9.50;1.92;;;;;;;3.90;100.00;99320.75;5002231;28;20058;-72
2023/12/30 04:59:25;;;;;;;7.55;2.15;;;;;;;3.83;100.00;99319.28;5008102;28;20053;-72
2023/12/30 05:01:53;;;;;;;7.38;2.13;;;;;;;3.99;100.00;99332.56;5025622;28;20053;-72
2023/12/30 05:04:20;;;;;;;5.78;1.73;;;;;;;3.99;100.00;99345.50;5018019;28;20128;-72
2023/12/30 05:06:47;;;;;;;7.95;2.33;;;;;;;3.99;100.00;99312.69;5013516;28;20061;-72
2023/12/30 05:09:14;;;;;;;10.30;2.63;;;;;;;4.03;100.00;99325.53;5023730;28;20093;-71
2023/12/30 05:11:44;;;;;;;6.18;1.50;;;;;;;4.22;100.00;99352.53;5023365;28;20486;-71
2023/12/30 05:14:12;;;;;;;8.80;1.98;;;;;;;4.23;100.00;99340.41;5013855;28;20045;-72
2023/12/30 05:16:45;;;;;;;13.27;2.15;;;;;;;4.17;100.00;99344.88;5016348;28;20053;-72
2023/12/30 05:19:12;;;;;;;9.25;2.05;;;;;;;4.16;100.00;99332.84;5008366;28;20060;-71
2023/12/30 05:21:40;;;;;;;5.57;2.25;;;;;;;4.29;100.00;99342.81;4995887;28;20484;-72
2023/12/30 05:24:08;;;;;;;8.43;1.60;;;;;;;4.21;100.00;99358.59;5019790;28;20167;-71
2023/12/30 05:26:35;;;;;;;9.75;2.17;;;;;;;4.06;100.00;99336.66;4998934;28;20049;-73
2023/12/30 05:29:02;;;;;;;5.72;1.80;;;;;;;4.09;100.00;99343.44;5023308;28;20052;-72
2023/12/30 05:31:29;;;;;;;9.07;1.73;;;;;;;4.13;100.00;99343.31;5014002;28;20056;-72
2023/12/30 05:33:56;;;;;;;5.93;1.92;;;;;;;3.96;100.00;99343.84;5005803;28;20087;-72
2023/12/30 05:36:23;;;;;;;7.55;1.55;;;;;;;4.01;100.00;99350.66;5023944;28;20128;-72
2023/12/30 05:38:49;;;;;;;6.70;1.50;;;;;;;4.05;100.00;99340.13;4999451;28;20427;-72
2023/12/30 05:41:16;;;;;;;9.45;2.20;;;;;;;4.17;100.00;99329.34;5011434;28;20396;-72
2023/12/30 05:43:43;;;;;;;7.28;2.55;;;;;;;4.01;100.00;99324.75;5013576;28;20480;-71
2023/12/30 05:46:16;;;;;;;10.00;1.60;;;;;;;4.11;100.00;99341.69;5024323;28;20111;-71
2023/12/30 05:48:43;;;;;;;9.13;1.77;;;;;;;4.10;100.00;99356.34;5023865;28;20057;-71
2023/12/30 05:51:11;;;;;;;6.20;1.90;;;;;;;4.21;100.00;99370.69;5013918;28;20050;-71
2023/12/30 05:53:40;;;;;;;7.75;1.85;;;;;;;4.05;100.00;99373.78;5025788;28;20049;-71
2023/12/30 05:56:07;;;;;;;9.15;1.83;;;;;;;4.11;100.00;99373.59;5014671;28;20084;-72
2023/12/30 05:58:34;;;;;;;8.20;2.13;;;;;;;4.14;100.00;99389.06;5011031;28;20112;-71
2023/12/30 06:01:02;;;;;;;8.57;1.80;;;;;;;3.97;100.00;99379.22;4998611;28;20468;-71
2023/12/30 06:03:29;;;;;;;10.18;1.75;;;;;;;4.12;100.00;99380.47;5019764;28;20056;-71
2023/12/30 06:05:56;;;;;;;10.57;2.25;;;;;;;4.14;100.00;99402.00;5011452;28;20046;-72
2023/12/30 06:08:22;;;;;;;6.32;2.05;;;;;;;4.05;100.00;99393.66;5002389;28;20462;-71
2023/12/30 06:10:53;;;;;;;6.65;1.52;;;;;;;3.93;100.00;99387.13;5006424;28;20052;-71
2023/12/30 06:13:20;;;;;;;6.28;1.60;;;;;;;4.05;100.00;99402.28;5017183;28;20053;-71
2023/12/30 06:15:49;;;;;;;6.75;1.90;;;;;;;3.84;100.00;99393.44;5011968;28;20419;-71
2023/12/30 06:18:16;;;;;;;8.60;1.65;;;;;;;4.10;100.00;99402.16;4997784;28;20050;-71
2023/12/30 06:20:45;;;;;;;6.40;1.55;;;;;;;3.89;100.00;99381.22;5026464;28;20048;-71
2023/12/30 06:23:13;;;;;;;6.05;1.90;;;;;;;3.97;100.00;99407.72;5008142;28;20050;-71
2023/12/30 06:25:40;;;;;;;9.63;1.95;;;;;;;3.83;100.00;99389.19;4998338;28;20156;-71
2023/12/30 06:28:07;;;;;;;10.05;2.58;;;;;;;3.93;100.00;99381.94;5013749;28;20068;-72
2023/12/30 06:30:34;;;;;;;11.18;1.95;;;;;;;4.02;100.00;99399.81;5013144;28;20444;-72
2023/12/30 06:33:06;;;;;;;7.53;1.83;;;;;;;3.92;100.00;99395.81;5002441;28;20067;-72
2023/12/30 06:35:34;;;;;;;9.63;2.10;;;;;;;3.83;100.00;99386.59;5019412;28;20076;-72
2023/12/30 06:38:01;;;;;;;8.25;1.90;;;;;;;3.71;100.00;99379.22;5002841;28;20421;-72
2023/12/30 06:40:28;;;;;;;10.32;2.90;;;;;;;3.86;100.00;99364.91;5014902;28;20049;-73
2023/12/30 06:42:55;;;;;;;10.30;1.98;;;;;;;3.71;100.00;99374.03;5031116;28;20061;-73
2023/12/30 06:45:22;;;;;;;9.48;2.25;;;;;;;3.72;100.00;99366.22;5010315;28;20541;-72
2023/12/30 06:47:48;;;;;;;8.90;1.92;;;;;;;3.77;100.00;99382.47;4998129;28;20057;-73
2023/12/30 06:50:15;;;;;;;7.50;2.03;;;;;;;3.74;100.00;99394.66;5019496;28;20052;-73
2023/12/30 06:52:46;;;;;;;14.88;2.47;;;;;;;3.46;100.00;99390.31;4995728;28;20131;-73
2023/12/30 06:55:14;;;;;;;7.47;1.80;;;;;;;3.79;100.00;99409.16;5010893;28;20052;-73
2023/12/30 06:57:52;;;;;;;6.50;1.90;;;;;;;3.78;100.00;99406.59;4994328;28;20049;-72
2023/12/30 07:00:20;;;;;;;8.02;1.60;;;;;;;3.83;100.00;99440.13;5017215;28;20505;-72
2023/12/30 07:02:46;;;;;;;7.85;1.95;;;;;;;3.71;100.00;99439.59;5009348;28;20100;-73
2023/12/30 07:05:13;;;;;;;6.45;2.00;;;;;;;3.67;100.00;99425.06;5000270;28;20079;-72
2023/12/30 07:07:40;;;;;;;6.47;1.67;;;;;;;3.55;100.00;99425.41;5022099;28;20450;-72
2023/12/30 07:10:07;;;;;;;8.73;1.83;;;;;;;3.43;100.00;99434.38;5015646;28;20148;-72
2023/12/30 07:12:34;;;;;;;6.25;1.80;;;;;;;3.59;100.00;99433.06;5021098;28;20554;-72
2023/12/30 07:15:01;;;;;;;11.98;1.98;;;;;;;3.64;100.00;99425.13;5013201;28;20132;-72
2023/12/30 07:17:28;;;;;;;11.65;2.10;;;;;;;3.42;100.00;99409.41;4992384;28;20058;-72
2023/12/30 07:19:55;;;;;;;6.60;1.80;;;;;;;3.47;100.00;99398.91;5026494;28;20038;-72
2023/12/30 07:22:22;;;;;;;6.85;2.67;;;;;;;3.41;100.00;99410.28;5010527;28;20778;-72
2023/12/30 07:24:49;;;;;;;5.88;2.00;;;;;;;3.46;100.00;99417.94;5007400;28;20415;-70
2023/12/30 07:27:15;;;;;;;11.38;1.88;;;;;;;3.50;100.00;99433.31;5010687;28;20052;-72
2023/12/30 07:29:42;;;;;;;8.80;1.92;;;;;;;3.49;100.00;99433.34;5008523;28;20050;-72
2023/12/30 07:32:09;;;;;;;7.50;2.17;;;;;;;3.46;100.00;99423.09;5008510;28;20049;-73
2023/12/30 07:34:36;;;;;;;5.43;1.65;;;;;;;3.58;100.00;99427.94;4990080;28;20120;-74
2023/12/30 07:37:04;;;;;;;6.00;1.80;;;;;;;3.60;100.00;99432.16;4994586;28;20046;-72
2023/12/30 07:39:32;;;;;;;5.60;1.70;;;;;;;3.59;100.00;99422.72;4990489;28;20054;-73
2023/12/30 07:41:59;;;;;;;7.22;2.10;;;;;;;3.57;100.00;99436.56;5022784;28;20049;-72
2023/12/30 07:44:28;;;;;;;3.83;1.48;;;;;;;3.50;100.00;99417.78;5019001;28;20561;-73
2023/12/30 07:46:55;;;;;;;6.57;1.55;;;;;;;3.57;100.00;99411.53;5014589;28;20046;-71
2023/12/30 07:49:22;;;;;;;8.77;2.28;;;;;;;3.52;100.00;99404.81;4993691;28;20054;-70
2023/12/30 07:51:49;;;;;;;8.73;2.08;;;;;;;3.56;100.00;99408.97;5004904;28;20478;-70
2023/12/30 07:54:16;;;;;;;9.40;1.85;;;;;;;3.57;100.00;99402.94;5007328;28;20056;-72
2023/12/30 07:56:42;;;;;;;7.88;3.58;;;;;;;3.50;100.00;99391.06;4999937;28;20058;-72
2023/12/30 07:59:11;;;;;;;3.67;1.45;;;;;;;3.47;100.00;99396.31;5005213;28;20081;-72
2023/12/30 08:01:44;;;;;;;7.28;2.05;;;;;;;3.40;100.00;99369.81;5007656;28;20475;-72
2023/12/30 08:04:11;;;;;;;6.05;1.55;;;;;;;3.40;100.00;99375.81;5006114;28;20062;-72
2023/12/30 08:06:39;;;;;;;6.72;1.80;;;;;;;3.35;100.00;99361.34;5001229;28;20060;-72
2023/12/30 08:09:07;;;;;;;6.05;1.55;;;;;;;3.37;100.00;99359.53;5000964;28;20068;-73
2023/12/30 08:11:35;;;;;;;5.68;2.03;;;;;;;3.29;100.00;99352.00;5008565;28;20052;-72
2023/12/30 08:14:20;;;;;;;10.18;1.95;;;;;;;3.26;100.00;99335.72;5002768;28;20438;-71
2023/12/30 08:16:47;;;;;;;5.70;1.40;;;;;;;3.21;100.00;99338.47;4998412;28;20388;-71
2023/12/30 08:19:13;;;;;;;5.53;1.50;;;;;;;3.21;100.00;99321.19;5008276;28;20046;-72
2023/12/30 08:21:40;;;;;;;4.65;1.50;;;;;;;3.18;100.00;99330.78;5008634;28;20088;-72
2023/12/30 08:24:07;;;;;;;4.90;2.60;;;;;;;3.17;100.00;99327.34;5008427;28;20507;-72
2023/12/30 08:26:34;;;;;;;5.50;1.63;;;;;;;3.01;100.00;99333.84;5008973;28;20042;-72
2023/12/30 08:29:00;;;;;;;6.68;1.80;;;;;;;2.83;100.00;99341.25;5012714;28;20550;-72
2023/12/30 08:31:27;;;;;;;9.80;1.90;;;;;;;2.55;100.00;99367.03;4987042;28;20050;-72
2023/12/30 08:33:54;;;;;;;6.32;1.70;;;;;;;2.49;100.00;99372.34;4998216;28;20054;-72
2023/12/30 08:36:22;;;;;;;9.05;2.30;;;;;;;2.30;100.00;99351.28;5002475;28;20518;-72
2023/12/30 08:38:49;;;;;;;8.35;1.95;;;;;;;2.34;100.00;99370.13;5001887;28;20041;-72
2023/12/30 08:41:16;;;;;;;6.95;1.65;;;;;;;2.52;100.00;99379.19;5001071;28;20596;-72
2023/12/30 08:43:43;;;;;;;11.20;2.38;;;;;;;2.63;100.00;99377.13;5002525;28;20092;-72
2023/12/30 08:46:10;;;;;;;9.43;2.05;;;;;;;2.80;100.00;99366.34;5004535;28;20048;-72
2023/12/30 08:48:37;;;;;;;10.68;2.55;;;;;;;2.99;100.00;99353.72;5005872;28;20054;-72
2023/12/30 08:51:04;;;;;;;5.68;2.03;;;;;;;3.11;100.00;99353.38;4995457;28;20049;-72
2023/12/30 08:53:31;;;;;;;8.75;2.25;;;;;;;3.17;100.00;99357.53;5008490;28;20064;-71
2023/12/30 08:55:57;;;;;;;10.90;2.13;;;;;;;3.27;100.00;99364.13;4995272;28;20100;-71
2023/12/30 08:58:24;;;;;;;8.82;1.73;;;;;;;3.37;100.00;99356.97;5008865;28;20053;-71
2023/12/30 09:00:52;;;;;;;6.90;1.40;;;;;;;3.44;100.00;99350.69;4998306;28;20415;-71
2023/12/30 09:03:19;;;;;;;4.65;1.73;;;;;;;3.51;100.00;99344.44;4990747;28;20053;-71
2023/12/30 09:05:46;;;;;;;7.68;1.60;;;;;;;3.58;100.00;99343.34;5007074;28;20081;-71
2023/12/30 09:08:13;;;;;;;4.15;1.40;;;;;;;3.58;100.00;99333.00;4997397;28;20050;-71
2023/12/30 09:10:40;;;;;;;4.25;1.40;;;;;;;3.64;100.00;99331.13;5002000;28;20081;-71
2023/12/30 09:13:07;;;;;;;6.45;1.60;;;;;;;3.59;100.00;99329.53;4985856;28;20046;-71
2023/12/30 09:15:34;;;;;;;5.15;1.42;;;;;;;3.65;100.00;99322.44;5008385;28;20057;-72
2023/12/30 09:18:01;;;;;;;4.22;1.50;;;;;;;3.51;100.00;99320.31;4990105;28;20137;-72
2023/12/30 09:20:28;;;;;;;6.13;1.55;;;;;;;3.64;100.00;99336.28;5003475;28;20054;-71
2023/12/30 09:22:54;;;;;;;6.65;1.60;;;;;;;3.67;100.00;99344.81;5007834;28;20049;-71
2023/12/30 09:25:21;;;;;;;4.13;1.30;;;;;;;3.73;100.00;99343.75;4993855;28;20065;-71
2023/12/30 09:27:48;;;;;;;8.55;2.15;;;;;;;3.87;100.00;99338.16;4997879;28;20050;-71
2023/12/30 09:30:17;;;;;;;6.65;1.33;;;;;;;3.86;100.00;99337.31;5013834;28;20057;-71
2023/12/30 09:32:44;;;;;;;8.25;1.95;;;;;;;3.88;100.00;99345.88;5007809;28;20192;-71
2023/12/30 09:35:11;;;;;;;9.32;2.25;;;;;;;4.01;100.00;99346.31;5004394;28;20133;-72
2023/12/30 09:37:37;;;;;;;7.22;1.75;;;;;;;3.95;100.00;99338.75;4995163;28;20065;-72
2023/12/30 09:40:05;;;;;;;7.13;1.92;;;;;;;4.02;100.00;99347.16;5008761;28;20046;-72
2023/12/30 09:42:32;;;;;;;9.98;2.00;;;;;;;4.02;100.00;99339.38;5001204;28;20046;-72
2023/12/30 09:44:59;;;;;;;6.43;1.65;;;;;;;4.16;100.00;99340.63;5010917;28;20535;-71
2023/12/30 09:47:28;;;;;;;6.65;1.83;;;;;;;4.14;100.00;99331.19;5004297;28;20060;-72
2023/12/30 09:49:55;;;;;;;4.18;1.60;;;;;;;4.19;100.00;99324.94;5001648;28;20491;-71
2023/12/30 09:52:22;;;;;;;5.97;1.63;;;;;;;4.29;100.00;99329.84;5011826;28;20161;-71
2023/12/30 09:54:49;;;;;;;10.60;2.42;;;;;;;4.32;100.00;99324.53;4976584;28;20503;-72
2023/12/30 09:57:16;;;;;;;6.13;1.70;;;;;;;4.28;100.00;99310.00;4999956;28;20066;-71
2023/12/30 09:59:46;;;;;;;6.32;1.60;;;;;;;4.35;100.00;99314.91;5001462;28;20052;-71
2023/12/30 10:02:15;;;;;;;8.40;1.85;;;;;;;4.33;100.00;99308.94;5007995;28;20057;-72
2023/12/30 10:04:41;;;;;;;7.65;1.80;;;;;;;4.24;100.00;99318.78;5002867;28;20487;-72
2023/12/30 10:07:08;;;;;;;5.03;1.48;;;;;;;4.19;100.00;99324.94;4997149;28;20046;-72
2023/12/30 10:09:35;;;;;;;5.38;1.60;;;;;;;4.13;100.00;99327.78;4993811;28;20045;-72
2023/12/30 10:12:02;;;;;;;7.30;2.20;;;;;;;4.22;100.00;99342.16;4993822;28;20141;-73
2023/12/30 10:14:29;;;;;;;7.05;2.03;;;;;;;4.18;100.00;99327.63;5003492;28;20073;-71
2023/12/30 10:16:55;;;;;;;6.13;1.40;;;;;;;4.36;100.00;99342.53;5009726;28;20084;-73
2023/12/30 10:19:22;;;;;;;8.30;2.38;;;;;;;4.40;100.00;99338.09;4998202;28;20085;-72
2023/12/30 10:21:49;;;;;;;7.93;1.85;;;;;;;4.31;100.00;99331.47;4984989;28;20120;-72
2023/12/30 10:24:16;;;;;;;8.80;2.00;;;;;;;4.18;100.00;99338.81;5009443;28;20050;-72
2023/12/30 10:26:43;;;;;;;8.68;2.38;;;;;;;4.12;100.00;99339.00;4997961;28;20049;-72
2023/12/30 10:29:11;;;;;;;7.25;2.40;;;;;;;4.14;100.00;99346.75;5000807;28;20047;-72
2023/12/30 10:31:37;;;;;;;10.90;3.25;;;;;;;4.11;100.00;99326.13;5000120;28;20049;-72
2023/12/30 10:34:05;;;;;;;7.18;2.50;;;;;;;4.01;100.00;99320.41;5002294;28;20407;-72
2023/12/30 10:36:32;;;;;;;10.07;3.33;;;;;;;3.96;100.00;99338.69;5001671;28;20081;-72
2023/12/30 10:39:00;;;;;;;11.13;3.45;;;;;;;3.86;100.00;99342.50;4996387;28;20050;-72
2023/12/30 10:41:27;;;;;;;11.85;3.20;;;;;;;3.64;100.00;99342.31;5000911;28;20050;-72
2023/12/30 10:43:55;;;;;;;8.43;2.35;;;;;;;3.62;100.00;99338.94;5000321;28;20057;-72
2023/12/30 10:46:25;;;;;;;14.23;2.33;;;;;;;3.86;100.00;99337.31;5009736;28;20061;-71
2023/12/30 10:48:55;;;;;;;7.72;2.20;;;;;;;3.82;100.00;99333.09;4994247;28;20049;-71
2023/12/30 10:51:30;;;;;;;7.15;1.95;;;;;;;4.03;100.00;99328.97;5004007;28;20047;-71
2023/12/30 10:54:05;;;;;;;5.20;1.73;;;;;;;4.11;100.00;99324.38;5008559;28;20052;-74
2023/12/30 10:56:40;;;;;;;4.72;1.58;;;;;;;4.23;100.00;99345.59;5001801;28;20204;-72
2023/12/30 10:59:07;;;;;;;7.13;1.80;;;;;;;4.37;100.00;99344.25;4994817;28;20131;-72
2023/12/30 11:01:36;;;;;;;6.82;2.35;;;;;;;4.27;100.00;99335.06;4995585;28;20052;-73
2023/12/30 11:04:11;;;;;;;6.05;1.95;;;;;;;4.38;100.00;99332.94;5003815;28;20053;-73
2023/12/30 11:06:44;;;;;;;6.65;2.00;;;;;;;4.48;100.00;99335.22;4991531;28;20137;-73
2023/12/30 11:09:13;;;;;;;4.30;1.60;;;;;;;4.46;100.00;99319.75;5005435;28;20093;-72
2023/12/30 11:11:49;;;;;;;10.70;1.80;;;;;;;4.67;100.00;99332.81;5007563;28;20062;-72
2023/12/30 11:14:17;;;;;;;5.68;1.92;;;;;;;4.66;100.00;99328.56;5006431;28;20072;-72
2023/12/30 11:16:45;;;;;;;7.85;1.83;;;;;;;4.75;100.00;99334.25;4996325;28;20350;-72
2023/12/30 11:19:32;;;;;;;5.57;1.60;;;;;;;4.77;100.00;99315.22;4998264;28;20085;-72
2023/12/30 11:22:02;;;;;;;4.45;1.63;;;;;;;4.84;100.00;99320.09;5002086;28;20052;-72
2023/12/30 11:24:29;;;;;;;5.72;1.70;;;;;;;4.85;100.00;99321.81;4991356;28;20495;-72
2023/12/30 11:26:56;;;;;;;7.55;1.80;;;;;;;4.89;100.00;99314.75;5007284;28;20081;-72
2023/12/30 11:29:25;;;;;;;4.70;1.60;;;;;;;4.94;100.00;99316.28;4996050;28;20124;-72
2023/12/30 11:31:55;;;;;;;6.70;1.70;;;;;;;5.02;100.00;99312.53;5004221;28;20433;-72
2023/12/30 11:34:24;;;;;;;7.10;1.75;;;;;;;5.02;100.00;99321.16;5008455;28;20091;-72